createdAt,value
2024-02-03T00:00:01.364Z,5.73
2024-02-03T00:02:29.651Z,5.60
2024-02-03T00:04:57.967Z,5.70
2024-02-03T00:07:26.293Z,5.53
2024-02-03T00:09:54.774Z,5.57
2024-02-03T00:12:27.190Z,5.37
2024-02-03T00:14:55.522Z,5.60
2024-02-03T00:17:25.504Z,4.97
2024-02-03T00:19:54.582Z,5.23
2024-02-03T00:22:23.279Z,5.47
2024-02-03T00:24:52.142Z,5.27
2024-02-03T00:27:20.411Z,5.30
2024-02-03T00:29:50.323Z,5.53
2024-02-03T00:32:18.550Z,5.60
2024-02-03T00:34:48.874Z,5.43
2024-02-03T00:37:17.124Z,5.40
2024-02-03T00:39:45.475Z,5.37
2024-02-03T00:42:13.927Z,5.53
2024-02-03T00:44:42.254Z,5.10
2024-02-03T00:47:10.491Z,5.20
2024-02-03T00:49:38.924Z,5.60
2024-02-03T00:52:08.701Z,5.07
2024-02-03T00:54:37.160Z,5.13
2024-02-03T00:57:06.067Z,5.50
2024-02-03T00:59:34.427Z,5.20
2024-02-03T01:02:02.631Z,5.40
2024-02-03T01:04:30.900Z,5.23
2024-02-03T01:07:00.614Z,5.30
2024-02-03T01:09:29.472Z,5.20
2024-02-03T01:11:57.697Z,5.63
2024-02-03T01:14:25.894Z,5.30
2024-02-03T01:16:54.248Z,4.90
2024-02-03T01:19:22.614Z,5.60
2024-02-03T01:21:50.942Z,5.27
2024-02-03T01:24:19.283Z,5.40
2024-02-03T01:26:48.955Z,5.80
2024-02-03T01:29:18.680Z,5.90
2024-02-03T01:31:47.263Z,5.63
2024-02-03T01:34:15.618Z,6.20
2024-02-03T01:36:44.165Z,5.67
2024-02-03T01:39:14.648Z,5.90
2024-02-03T01:41:42.857Z,5.23
2024-02-03T01:44:12.509Z,5.20
2024-02-03T01:46:41.744Z,5.47
2024-02-03T01:49:10.071Z,5.60
2024-02-03T01:51:38.509Z,5.60
2024-02-03T01:54:07.635Z,5.63
2024-02-03T01:56:38.834Z,5.70
2024-02-03T01:59:07.638Z,5.07
2024-02-03T02:01:37.327Z,5.77
2024-02-03T02:04:06.165Z,5.77
2024-02-03T02:06:34.548Z,5.80
2024-02-03T02:09:02.803Z,6.13
2024-02-03T02:11:31.609Z,5.77
2024-02-03T02:13:58.902Z,5.27
2024-02-03T02:16:30.515Z,5.67
2024-02-03T02:19:00.320Z,5.40
2024-02-03T02:21:30.012Z,5.63
2024-02-03T02:23:58.536Z,5.50
2024-02-03T02:26:26.881Z,5.80
2024-02-03T02:28:57.360Z,6.00
2024-02-03T02:31:25.553Z,5.57
2024-02-03T02:33:53.843Z,6.50
2024-02-03T02:36:22.291Z,5.90
2024-02-03T02:38:51.878Z,5.63
2024-02-03T02:41:20.091Z,5.27
2024-02-03T02:43:48.302Z,5.43
2024-02-03T02:46:17.086Z,6.20
2024-02-03T02:48:45.380Z,5.73
2024-02-03T02:51:14.682Z,5.57
2024-02-03T02:53:42.954Z,5.33
2024-02-03T02:56:14.302Z,5.40
2024-02-03T02:58:42.588Z,5.13
2024-02-03T03:01:11.341Z,4.87
2024-02-03T03:03:39.853Z,4.80
2024-02-03T03:06:08.199Z,5.63
2024-02-03T03:08:36.743Z,5.20
2024-02-03T03:11:05.317Z,5.37
2024-02-03T03:13:34.922Z,5.80
2024-02-03T03:16:03.126Z,5.93
2024-02-03T03:18:31.345Z,6.33
2024-02-03T03:21:00.882Z,5.60
2024-02-03T03:23:29.181Z,5.83
2024-02-03T03:25:57.559Z,6.00
2024-02-03T03:28:25.745Z,6.47
2024-02-03T03:30:55.396Z,6.73
2024-02-03T03:33:23.673Z,6.63
2024-02-03T03:35:51.913Z,6.90
2024-02-03T03:38:20.147Z,6.77
2024-02-03T03:40:48.373Z,7.07
2024-02-03T03:43:16.595Z,7.80
2024-02-03T03:45:44.789Z,7.83
2024-02-03T03:48:14.598Z,7.23
2024-02-03T03:50:43.002Z,6.80
2024-02-03T03:53:11.169Z,7.00
2024-02-03T03:55:39.361Z,6.50
2024-02-03T03:58:07.504Z,6.73
2024-02-03T04:00:35.729Z,6.23
2024-02-03T04:03:04.919Z,6.07
2024-02-03T04:05:33.500Z,6.30
2024-02-03T04:08:01.938Z,5.77
2024-02-03T04:10:30.117Z,6.03
2024-02-03T04:12:58.469Z,5.40
2024-02-03T04:15:26.804Z,5.40
2024-02-03T04:17:55.509Z,5.53
2024-02-03T04:20:24.476Z,5.27
2024-02-03T04:22:54.199Z,5.43
2024-02-03T04:25:22.311Z,5.20
2024-02-03T04:27:50.621Z,5.30
2024-02-03T04:30:23.231Z,4.97
2024-02-03T04:32:53.530Z,4.77
2024-02-03T04:35:22.071Z,5.40
2024-02-03T04:37:50.437Z,4.40
2024-02-03T04:40:20.183Z,5.37
2024-02-03T04:42:49.994Z,5.20
2024-02-03T04:45:18.750Z,5.50
2024-02-03T04:47:47.088Z,4.90
2024-02-03T04:50:15.294Z,5.37
2024-02-03T04:52:43.550Z,5.50
2024-02-03T04:55:11.691Z,5.30
2024-02-03T04:57:41.250Z,5.63
2024-02-03T05:00:10.515Z,6.10
2024-02-03T05:02:39.809Z,5.13
2024-02-03T05:05:08.576Z,5.23
2024-02-03T05:07:36.896Z,5.50
2024-02-03T05:10:06.296Z,5.13
2024-02-03T05:12:34.649Z,6.20
2024-02-03T05:15:05.941Z,5.23
2024-02-03T05:17:35.013Z,4.87
2024-02-03T05:20:03.299Z,5.13
2024-02-03T05:22:31.488Z,5.17
2024-02-03T05:24:59.669Z,6.17
2024-02-03T05:27:28.028Z,4.90
2024-02-03T05:29:56.316Z,5.07
2024-02-03T05:32:25.914Z,5.00
2024-02-03T05:34:54.276Z,4.60
2024-02-03T05:37:22.526Z,4.13
2024-02-03T05:39:50.992Z,4.53
2024-02-03T05:42:22.251Z,4.10
2024-02-03T05:44:52.010Z,4.00
2024-02-03T05:47:20.197Z,3.60
2024-02-03T05:49:49.927Z,3.70
2024-02-03T05:52:18.136Z,4.03
2024-02-03T05:54:46.409Z,3.07
2024-02-03T05:57:14.728Z,3.53
2024-02-03T05:59:50.676Z,3.20
2024-02-03T06:02:20.450Z,2.90
2024-02-03T06:04:50.139Z,2.90
2024-02-03T06:07:19.011Z,3.07
2024-02-03T06:09:47.482Z,3.13
2024-02-03T06:12:16.034Z,3.10
2024-02-03T06:14:45.415Z,3.10
2024-02-03T06:17:14.434Z,2.90
2024-02-03T06:19:44.178Z,2.83
2024-02-03T06:22:14.386Z,2.90
2024-02-03T06:24:42.711Z,2.90
2024-02-03T06:27:11.046Z,3.13
2024-02-03T06:29:39.291Z,2.80
2024-02-03T06:32:08.082Z,3.40
2024-02-03T06:34:36.471Z,3.47
2024-02-03T06:37:05.555Z,3.27
2024-02-03T06:39:35.227Z,2.53
2024-02-03T06:42:03.438Z,3.27
2024-02-03T06:44:31.596Z,3.70
2024-02-03T06:46:59.807Z,3.97
2024-02-03T06:49:28.277Z,3.20
2024-02-03T06:51:56.849Z,4.43
2024-02-03T06:54:25.223Z,3.70
2024-02-03T06:56:54.849Z,3.97
2024-02-03T06:59:23.085Z,3.93
2024-02-03T07:01:51.756Z,4.27
2024-02-03T07:04:20.216Z,3.87
2024-02-03T07:06:48.526Z,4.20
2024-02-03T07:09:17.008Z,4.50
2024-02-03T07:11:56.978Z,5.00
2024-02-03T07:14:34.641Z,4.93
2024-02-03T07:17:02.918Z,4.87
2024-02-03T07:19:32.107Z,4.63
2024-02-03T07:22:04.321Z,5.30
2024-02-03T07:24:36.621Z,5.70
2024-02-03T07:27:05.557Z,5.60
2024-02-03T07:29:35.520Z,5.57
2024-02-03T07:32:05.084Z,5.23
2024-02-03T07:34:33.479Z,6.13
2024-02-03T07:37:01.889Z,6.33
2024-02-03T07:39:30.204Z,6.47
2024-02-03T07:41:58.406Z,7.00
2024-02-03T07:44:26.531Z,7.50
2024-02-03T07:46:56.059Z,7.70
2024-02-03T07:49:24.287Z,7.47
2024-02-03T07:51:52.940Z,6.83
2024-02-03T07:54:21.151Z,7.27
2024-02-03T07:56:49.403Z,8.00
2024-02-03T07:59:17.631Z,8.27
2024-02-03T08:01:45.887Z,7.40
2024-02-03T08:04:17.402Z,7.30
2024-02-03T08:06:45.754Z,7.67
2024-02-03T08:09:14.122Z,7.83
2024-02-03T08:11:42.368Z,7.27
2024-02-03T08:14:10.581Z,7.90
2024-02-03T08:16:38.765Z,7.60
2024-02-03T08:19:07.265Z,6.90
2024-02-03T08:21:38.059Z,7.33
2024-02-03T08:24:06.809Z,6.43
2024-02-03T08:26:35.023Z,6.07
2024-02-03T08:29:03.196Z,6.00
2024-02-03T08:31:31.385Z,6.40
2024-02-03T08:33:59.693Z,6.40
2024-02-03T08:36:28.104Z,5.73
2024-02-03T08:38:57.947Z,5.60
2024-02-03T08:41:26.327Z,5.70
2024-02-03T08:43:54.524Z,5.97
2024-02-03T08:46:23.243Z,6.50
2024-02-03T08:48:51.554Z,5.83
2024-02-03T08:51:19.927Z,6.03
2024-02-03T08:53:48.169Z,5.23
2024-02-03T08:56:17.669Z,5.47
2024-02-03T08:58:45.908Z,5.07
2024-02-03T09:01:14.320Z,4.97
2024-02-03T09:03:42.632Z,5.67
2024-02-03T09:06:12.921Z,5.70
2024-02-03T09:08:41.223Z,5.37
2024-02-03T09:11:09.462Z,5.80
2024-02-03T09:13:38.975Z,5.27
2024-02-03T09:16:07.687Z,5.13
2024-02-03T09:18:36.130Z,5.23
2024-02-03T09:21:12.605Z,5.20
2024-02-03T09:23:41.371Z,5.27
2024-02-03T09:26:10.250Z,4.70
2024-02-03T09:28:39.862Z,5.77
2024-02-03T09:31:08.145Z,5.10
2024-02-03T09:33:37.572Z,4.70
2024-02-03T09:36:07.194Z,4.73
2024-02-03T09:38:35.452Z,5.23
2024-02-03T09:41:04.105Z,4.53
2024-02-03T09:43:32.510Z,4.83
2024-02-03T09:46:02.411Z,5.70
2024-02-03T09:48:30.816Z,4.97
2024-02-03T09:51:00.229Z,5.20
2024-02-03T09:53:28.772Z,5.40
2024-02-03T09:55:59.683Z,5.27
2024-02-03T09:58:28.227Z,4.80
2024-02-03T10:00:56.664Z,5.03
2024-02-03T10:03:26.460Z,5.47
2024-02-03T10:06:02.073Z,5.33
2024-02-03T10:08:30.531Z,6.10
2024-02-03T10:10:59.263Z,6.40
2024-02-03T10:13:28.100Z,5.77
2024-02-03T10:16:01.410Z,5.83
2024-02-03T10:18:34.452Z,5.50
2024-02-03T10:21:03.720Z,5.60
2024-02-03T10:23:32.152Z,6.07
2024-02-03T10:26:01.250Z,6.00
2024-02-03T10:28:29.673Z,5.77
2024-02-03T10:31:03.859Z,5.30
2024-02-03T10:33:34.794Z,5.43
2024-02-03T10:36:04.309Z,5.60
2024-02-03T10:38:32.578Z,5.07
2024-02-03T10:41:03.813Z,5.70
2024-02-03T10:43:36.925Z,5.40
2024-02-03T10:46:07.731Z,5.20
2024-02-03T10:48:42.573Z,4.93
2024-02-03T10:51:16.236Z,5.07
2024-02-03T10:53:50.922Z,4.30
2024-02-03T10:56:24.649Z,5.03
2024-02-03T10:58:53.285Z,4.70
2024-02-03T11:01:22.628Z,4.50
2024-02-03T11:03:53.969Z,4.33
2024-02-03T11:06:26.414Z,4.83
2024-02-03T11:08:54.639Z,5.30
2024-02-03T11:11:28.649Z,5.40
2024-02-03T11:13:56.870Z,5.90
2024-02-03T11:16:25.048Z,5.87
2024-02-03T11:18:54.754Z,5.70
2024-02-03T11:21:28.764Z,5.43
2024-02-03T11:23:57.274Z,5.77
2024-02-03T11:26:25.477Z,4.80
2024-02-03T11:28:53.632Z,4.90
2024-02-03T11:31:26.427Z,4.77
2024-02-03T11:33:56.104Z,4.77
2024-02-03T11:36:24.367Z,4.57
2024-02-03T11:38:54.123Z,4.63
2024-02-03T11:41:23.102Z,5.03
2024-02-03T11:43:51.536Z,5.00
2024-02-03T11:46:20.339Z,5.17
2024-02-03T11:48:49.599Z,4.13
2024-02-03T11:51:19.367Z,4.50
2024-02-03T11:53:47.639Z,4.80
2024-02-03T11:56:15.854Z,4.67
2024-02-03T11:58:44.034Z,4.63
2024-02-03T12:01:15.493Z,4.40
2024-02-03T12:03:43.937Z,4.63
2024-02-03T12:06:13.166Z,4.37
2024-02-03T12:08:42.776Z,3.90
2024-02-03T12:11:13.756Z,4.37
2024-02-03T12:13:45.205Z,4.30
2024-02-03T12:16:13.851Z,4.77
2024-02-03T12:18:42.280Z,5.50
2024-02-03T12:21:11.376Z,7.37
2024-02-03T12:23:41.145Z,6.13
2024-02-03T12:26:11.777Z,6.93
2024-02-03T12:28:40.654Z,6.60
2024-02-03T12:31:09.767Z,6.97
2024-02-03T12:33:38.175Z,7.70
2024-02-03T12:36:09.397Z,7.33
2024-02-03T12:38:37.730Z,7.60
2024-02-03T12:41:06.166Z,7.50
2024-02-03T12:43:35.895Z,8.23
2024-02-03T12:46:04.352Z,8.10
2024-02-03T12:48:32.824Z,7.63
2024-02-03T12:51:01.545Z,8.07
2024-02-03T12:53:30.890Z,6.93
2024-02-03T12:55:59.798Z,7.00
2024-02-03T12:58:31.742Z,6.83
2024-02-03T13:01:01.363Z,6.80
2024-02-03T13:03:29.770Z,6.40
2024-02-03T13:05:58.249Z,6.63
2024-02-03T13:08:26.594Z,6.87
2024-02-03T13:10:55.536Z,7.17
2024-02-03T13:13:23.739Z,6.87
2024-02-03T13:15:52.212Z,8.23
2024-02-03T13:18:21.930Z,6.90
2024-02-03T13:20:50.122Z,7.90
2024-02-03T13:23:18.340Z,6.53
2024-02-03T13:25:48.544Z,7.47
2024-02-03T13:28:16.731Z,7.20
2024-02-03T13:30:44.981Z,7.07
2024-02-03T13:33:14.446Z,6.90
2024-02-03T13:35:44.043Z,7.87
2024-02-03T13:38:12.727Z,6.97
2024-02-03T13:40:40.873Z,6.90
2024-02-03T13:43:09.173Z,6.97
2024-02-03T13:45:37.615Z,5.93
2024-02-03T13:48:07.935Z,6.40
2024-02-03T13:50:36.245Z,6.43
2024-02-03T13:53:06.774Z,5.50
2024-02-03T13:55:35.295Z,5.97
2024-02-03T13:58:04.572Z,5.50
2024-02-03T14:00:32.960Z,5.80
2024-02-03T14:03:01.299Z,6.33
2024-02-03T14:05:29.547Z,5.80
2024-02-03T14:07:57.840Z,5.90
2024-02-03T14:10:27.499Z,5.47
2024-02-03T14:12:56.043Z,7.17
2024-02-03T14:15:24.376Z,5.90
2024-02-03T14:17:52.683Z,6.73
2024-02-03T14:20:20.903Z,5.50
2024-02-03T14:22:49.110Z,6.20
2024-02-03T14:25:18.938Z,6.60
2024-02-03T14:27:48.628Z,6.30
2024-02-03T14:30:17.015Z,7.17
2024-02-03T14:32:45.345Z,6.97
2024-02-03T14:35:13.935Z,7.20
2024-02-03T14:37:46.404Z,6.60
2024-02-03T14:40:15.088Z,6.13
2024-02-03T14:42:43.315Z,6.80
2024-02-03T14:45:13.052Z,7.60
2024-02-03T14:47:41.173Z,6.90
2024-02-03T14:50:10.278Z,6.63
2024-02-03T14:52:38.635Z,6.57
2024-02-03T14:55:08.186Z,6.87
2024-02-03T14:57:36.415Z,6.57
2024-02-03T15:00:05.487Z,6.30
2024-02-03T15:02:37.492Z,6.00
2024-02-03T15:05:06.807Z,6.40
2024-02-03T15:07:35.282Z,6.57
2024-02-03T15:10:04.142Z,6.13
2024-02-03T15:12:35.399Z,6.07
2024-02-03T15:15:05.202Z,5.77
2024-02-03T15:17:34.830Z,6.03
2024-02-03T15:20:07.357Z,6.70
2024-02-03T15:22:35.716Z,6.00
2024-02-03T15:25:06.108Z,5.90
2024-02-03T15:27:34.468Z,6.07
2024-02-03T15:30:02.814Z,5.80
2024-02-03T15:32:31.976Z,6.07
2024-02-03T15:35:02.065Z,6.27
2024-02-03T15:37:30.349Z,6.10
2024-02-03T15:39:58.593Z,5.87
2024-02-03T15:42:27.033Z,6.50
2024-02-03T15:44:55.273Z,6.43
2024-02-03T15:47:23.556Z,6.20
2024-02-03T15:49:52.095Z,6.50
2024-02-03T15:52:22.301Z,6.87
2024-02-03T15:54:50.514Z,7.27
2024-02-03T15:57:19.136Z,6.60
2024-02-03T15:59:49.655Z,6.70
2024-02-03T16:02:20.823Z,7.00
2024-02-03T16:04:50.586Z,7.73
2024-02-03T16:07:18.889Z,8.50
2024-02-03T16:09:48.474Z,8.20
2024-02-03T16:12:22.282Z,8.70
2024-02-03T16:14:51.197Z,8.23
2024-02-03T16:17:19.509Z,7.43
2024-02-03T16:19:48.243Z,7.90
2024-02-03T16:22:16.619Z,8.20
2024-02-03T16:24:45.048Z,9.40
2024-02-03T16:27:14.657Z,9.27
2024-02-03T16:29:42.950Z,9.07
2024-02-03T16:32:11.186Z,8.20
2024-02-03T16:34:39.531Z,10.80
2024-02-03T16:37:07.985Z,8.10
2024-02-03T16:39:36.208Z,7.97
2024-02-03T16:42:04.680Z,8.87
2024-02-03T16:44:34.277Z,7.97
2024-02-03T16:47:02.473Z,9.77
2024-02-03T16:49:30.686Z,9.20
2024-02-03T16:51:58.956Z,9.30
2024-02-03T16:54:27.127Z,9.97
2024-02-03T16:56:55.336Z,10.57
2024-02-03T16:59:24.152Z,10.33
2024-02-03T17:01:54.504Z,9.57
2024-02-03T17:04:22.833Z,11.13
2024-02-03T17:06:51.068Z,9.73
2024-02-03T17:09:19.778Z,9.67
2024-02-03T17:11:48.015Z,9.57
2024-02-03T17:14:16.359Z,9.27
2024-02-03T17:16:44.622Z,9.77
2024-02-03T17:19:14.391Z,10.40
2024-02-03T17:21:43.748Z,12.17
2024-02-03T17:24:12.098Z,12.63
2024-02-03T17:26:40.234Z,10.27
2024-02-03T17:29:08.482Z,10.13
2024-02-03T17:31:36.721Z,10.27
2024-02-03T17:34:04.891Z,10.80
2024-02-03T17:36:35.042Z,10.23
2024-02-03T17:39:04.139Z,10.67
2024-02-03T17:41:32.337Z,11.37
2024-02-03T17:44:00.573Z,12.30
2024-02-03T17:46:28.785Z,12.00
2024-02-03T17:48:57.954Z,10.87
2024-02-03T17:51:26.425Z,11.30
2024-02-03T17:53:56.033Z,11.90
2024-02-03T17:56:24.181Z,10.77
2024-02-03T17:58:52.384Z,10.70
2024-02-03T18:01:21.226Z,12.37
2024-02-03T18:03:49.627Z,11.03
2024-02-03T18:06:17.942Z,10.50
2024-02-03T18:08:48.967Z,10.83
2024-02-03T18:11:18.930Z,10.20
2024-02-03T18:13:48.887Z,10.90
2024-02-03T18:16:20.231Z,10.60
2024-02-03T18:18:48.560Z,11.13
2024-02-03T18:21:18.153Z,10.73
2024-02-03T18:23:46.679Z,10.30
2024-02-03T18:26:14.887Z,10.43
2024-02-03T18:28:44.377Z,11.23
2024-02-03T18:31:12.645Z,10.83
2024-02-03T18:33:41.830Z,10.67
2024-02-03T18:36:11.517Z,10.93
2024-02-03T18:38:40.691Z,10.90
2024-02-03T18:41:08.862Z,10.93
2024-02-03T18:43:37.063Z,10.47
2024-02-03T18:46:07.333Z,11.40
2024-02-03T18:48:35.683Z,11.13
2024-02-03T18:51:04.451Z,11.67
2024-02-03T18:53:33.680Z,11.30
2024-02-03T18:56:02.062Z,11.67
2024-02-03T18:58:30.314Z,11.70
2024-02-03T19:00:58.925Z,11.07
2024-02-03T19:03:28.721Z,11.83
2024-02-03T19:05:56.923Z,11.03
2024-02-03T19:08:26.613Z,10.37
2024-02-03T19:10:54.793Z,11.37
2024-02-03T19:13:23.991Z,12.07
2024-02-03T19:15:52.481Z,11.03
2024-02-03T19:18:21.914Z,11.57
2024-02-03T19:20:51.635Z,12.53
2024-02-03T19:23:21.192Z,12.70
2024-02-03T19:25:53.040Z,12.77
2024-02-03T19:28:21.588Z,12.63
2024-02-03T19:30:49.786Z,11.60
2024-02-03T19:33:18.218Z,11.83
2024-02-03T19:35:49.018Z,11.37
2024-02-03T19:38:19.399Z,11.37
2024-02-03T19:40:50.314Z,11.63
2024-02-03T19:43:19.351Z,11.20
2024-02-03T19:45:47.622Z,11.57
2024-02-03T19:48:15.952Z,10.80
2024-02-03T19:50:46.088Z,11.30
2024-02-03T19:53:14.318Z,11.33
2024-02-03T19:55:44.141Z,10.70
2024-02-03T19:58:12.388Z,10.20
2024-02-03T20:00:40.809Z,10.83
2024-02-03T20:03:09.099Z,11.10
2024-02-03T20:05:37.441Z,10.40
2024-02-03T20:08:06.506Z,11.03
2024-02-03T20:10:36.806Z,10.90
2024-02-03T20:13:06.665Z,10.37
2024-02-03T20:15:34.940Z,10.70
2024-02-03T20:18:03.321Z,11.47
2024-02-03T20:20:31.963Z,10.97
2024-02-03T20:23:00.312Z,10.70
2024-02-03T20:25:28.544Z,10.50
2024-02-03T20:27:56.886Z,10.93
2024-02-03T20:30:26.624Z,11.13
2024-02-03T20:32:55.015Z,10.83
2024-02-03T20:35:23.464Z,12.17
2024-02-03T20:37:51.779Z,10.10
2024-02-03T20:40:20.203Z,11.17
2024-02-03T20:42:48.926Z,11.43
2024-02-03T20:45:17.475Z,11.30
2024-02-03T20:47:47.248Z,12.07
2024-02-03T20:50:18.397Z,11.73
2024-02-03T20:52:46.649Z,11.43
2024-02-03T20:55:14.832Z,11.60
2024-02-03T20:57:43.122Z,10.60
2024-02-03T21:00:13.000Z,11.37
2024-02-03T21:02:41.293Z,11.40
2024-02-03T21:05:11.110Z,11.50
2024-02-03T21:07:39.512Z,11.80
2024-02-03T21:10:09.786Z,11.97
2024-02-03T21:12:38.165Z,12.63
2024-02-03T21:15:07.339Z,11.33
2024-02-03T21:17:35.630Z,11.20
2024-02-03T21:20:06.934Z,11.80
2024-02-03T21:22:36.823Z,11.43
2024-02-03T21:25:05.662Z,11.73
2024-02-03T21:27:33.912Z,11.83
2024-02-03T21:30:02.127Z,11.77
2024-02-03T21:32:30.367Z,11.00
2024-02-03T21:34:58.799Z,12.20
2024-02-03T21:37:27.068Z,11.30
2024-02-03T21:39:56.636Z,11.37
2024-02-03T21:42:25.873Z,11.17
2024-02-03T21:44:54.743Z,11.10
2024-02-03T21:47:22.941Z,10.63
2024-02-03T21:49:51.203Z,10.90
2024-02-03T21:52:24.084Z,10.07
2024-02-03T21:54:53.358Z,10.87
2024-02-03T21:57:22.991Z,10.57
2024-02-03T21:59:51.746Z,11.17
2024-02-03T22:02:19.962Z,10.80
2024-02-03T22:04:48.338Z,10.77
2024-02-03T22:07:17.505Z,11.13
2024-02-03T22:09:48.597Z,11.80
2024-02-03T22:12:16.821Z,11.37
2024-02-03T22:14:46.449Z,11.77
2024-02-03T22:17:14.634Z,11.17
2024-02-03T22:19:43.005Z,11.70
2024-02-03T22:22:11.328Z,11.97
2024-02-03T22:24:40.470Z,12.00
2024-02-03T22:27:08.698Z,12.13
2024-02-03T22:29:36.934Z,12.10
2024-02-03T22:32:07.266Z,11.53
2024-02-03T22:34:36.540Z,11.87
2024-02-03T22:37:04.909Z,12.50
2024-02-03T22:39:33.119Z,11.80
2024-02-03T22:42:01.413Z,12.20
2024-02-03T22:44:29.915Z,12.50
2024-02-03T22:46:58.489Z,12.30
2024-02-03T22:49:28.139Z,11.53
2024-02-03T22:51:57.056Z,11.90
2024-02-03T22:54:25.383Z,11.47
2024-02-03T22:56:53.675Z,11.03
2024-02-03T22:59:21.880Z,10.80
2024-02-03T23:01:50.143Z,10.83
2024-02-03T23:04:19.565Z,10.53
2024-02-03T23:06:49.219Z,10.27
2024-02-03T23:09:17.692Z,10.60
2024-02-03T23:11:45.922Z,10.13
2024-02-03T23:14:15.443Z,9.17
2024-02-03T23:16:44.925Z,10.07
2024-02-03T23:19:15.094Z,9.90
2024-02-03T23:21:43.500Z,10.47
2024-02-03T23:24:13.069Z,10.00
2024-02-03T23:26:41.220Z,9.17
2024-02-03T23:29:09.446Z,9.43
2024-02-03T23:31:37.617Z,9.00
2024-02-03T23:34:05.994Z,9.30
2024-02-03T23:36:34.283Z,9.87
2024-02-03T23:39:03.132Z,9.70
2024-02-03T23:41:33.418Z,10.87
2024-02-03T23:44:04.652Z,9.73
2024-02-03T23:46:33.774Z,10.70
2024-02-03T23:49:02.142Z,10.10
2024-02-03T23:51:30.768Z,10.10
2024-02-03T23:54:02.831Z,9.53
2024-02-03T23:56:32.579Z,10.30
2024-02-03T23:59:00.740Z,10.43
